sensor_id;sensor_type;location;lat;lon;timestamp;temperature;humidity
24518;DHT22;12678;51.336;12.406;2023-08-31T00:00:07;18.90;99.90
24518;DHT22;12678;51.336;12.406;2023-08-31T00:02:34;19.00;99.90
24518;DHT22;12678;51.336;12.406;2023-08-31T00:05:00;19.10;99.90
24518;DHT22;12678;51.336;12.406;2023-08-31T00:07:27;19.00;99.90
24518;DHT22;12678;51.336;12.406;2023-08-31T00:09:53;18.60;99.90
24518;DHT22;12678;51.336;12.406;2023-08-31T00:12:19;18.10;99.90
24518;DHT22;12678;51.336;12.406;2023-08-31T00:14:44;17.80;99.90
24518;DHT22;12678;51.336;12.406;2023-08-31T00:17:10;18.30;99.90
24518;DHT22;12678;51.336;12.406;2023-08-31T00:19:35;18.40;99.90
24518;DHT22;12678;51.336;12.406;2023-08-31T00:22:01;18.40;99.90
24518;DHT22;12678;51.336;12.406;2023-08-31T00:24:26;18.50;99.90
24518;DHT22;12678;51.336;12.406;2023-08-31T00:26:57;18.50;99.90
24518;DHT22;12678;51.336;12.406;2023-08-31T00:29:22;18.30;99.90
24518;DHT22;12678;51.336;12.406;2023-08-31T00:31:48;18.60;99.90
24518;DHT22;12678;51.336;12.406;2023-08-31T00:34:16;19.00;99.90
24518;DHT22;12678;51.336;12.406;2023-08-31T00:36:43;19.20;99.90
24518;DHT22;12678;51.336;12.406;2023-08-31T00:39:08;19.00;99.90
24518;DHT22;12678;51.336;12.406;2023-08-31T00:41:36;18.80;99.90
24518;DHT22;12678;51.336;12.406;2023-08-31T00:44:03;19.00;99.90
24518;DHT22;12678;51.336;12.406;2023-08-31T00:46:31;18.90;99.90
24518;DHT22;12678;51.336;12.406;2023-08-31T00:48:57;19.20;99.90
24518;DHT22;12678;51.336;12.406;2023-08-31T00:51:23;18.80;99.90
24518;DHT22;12678;51.336;12.406;2023-08-31T00:53:51;18.70;99.90
24518;DHT22;12678;51.336;12.406;2023-08-31T00:56:19;18.70;99.90
24518;DHT22;12678;51.336;12.406;2023-08-31T00:58:45;18.60;99.90
24518;DHT22;12678;51.336;12.406;2023-08-31T01:04:00;18.90;99.90
24518;DHT22;12678;51.336;12.406;2023-08-31T01:06:59;19.10;99.90
24518;DHT22;12678;51.336;12.406;2023-08-31T01:09:43;19.10;99.90
24518;DHT22;12678;51.336;12.406;2023-08-31T01:12:26;18.90;99.90
24518;DHT22;12678;51.336;12.406;2023-08-31T01:15:05;19.00;99.90
24518;DHT22;12678;51.336;12.406;2023-08-31T01:17:48;19.10;99.90
24518;DHT22;12678;51.336;12.406;2023-08-31T01:20:19;19.00;99.90
24518;DHT22;12678;51.336;12.406;2023-08-31T01:22:57;19.00;99.90
24518;DHT22;12678;51.336;12.406;2023-08-31T01:25:26;19.00;99.90
24518;DHT22;12678;51.336;12.406;2023-08-31T01:27:51;19.00;99.90
24518;DHT22;12678;51.336;12.406;2023-08-31T01:30:17;18.60;99.90
24518;DHT22;12678;51.336;12.406;2023-08-31T01:32:44;18.60;99.90
24518;DHT22;12678;51.336;12.406;2023-08-31T01:35:16;18.70;99.90
24518;DHT22;12678;51.336;12.406;2023-08-31T01:37:54;18.60;99.90
24518;DHT22;12678;51.336;12.406;2023-08-31T01:42:58;18.70;99.90
24518;DHT22;12678;51.336;12.406;2023-08-31T01:45:26;18.60;99.90
24518;DHT22;12678;51.336;12.406;2023-08-31T01:47:52;18.80;99.90
24518;DHT22;12678;51.336;12.406;2023-08-31T01:50:17;18.50;99.90
24518;DHT22;12678;51.336;12.406;2023-08-31T01:52:43;18.80;99.90
24518;DHT22;12678;51.336;12.406;2023-08-31T01:55:09;18.70;99.90
24518;DHT22;12678;51.336;12.406;2023-08-31T01:57:34;18.50;99.90
24518;DHT22;12678;51.336;12.406;2023-08-31T02:00:00;18.40;99.90
24518;DHT22;12678;51.336;12.406;2023-08-31T02:02:25;18.80;99.90
24518;DHT22;12678;51.336;12.406;2023-08-31T02:04:51;18.80;99.90
24518;DHT22;12678;51.336;12.406;2023-08-31T02:07:17;18.90;99.90
24518;DHT22;12678;51.336;12.406;2023-08-31T02:09:43;19.10;99.90
24518;DHT22;12678;51.336;12.406;2023-08-31T02:12:08;19.10;99.90
24518;DHT22;12678;51.336;12.406;2023-08-31T02:14:37;18.90;99.90
24518;DHT22;12678;51.336;12.406;2023-08-31T02:17:03;18.80;99.90
24518;DHT22;12678;51.336;12.406;2023-08-31T02:19:28;19.00;99.90
24518;DHT22;12678;51.336;12.406;2023-08-31T02:21:54;18.90;99.90
24518;DHT22;12678;51.336;12.406;2023-08-31T02:24:20;19.10;99.90
24518;DHT22;12678;51.336;12.406;2023-08-31T02:26:45;19.00;99.90
24518;DHT22;12678;51.336;12.406;2023-08-31T02:29:11;18.80;99.90
24518;DHT22;12678;51.336;12.406;2023-08-31T02:31:36;18.50;99.90
24518;DHT22;12678;51.336;12.406;2023-08-31T02:34:03;18.50;99.90
24518;DHT22;12678;51.336;12.406;2023-08-31T02:36:29;18.40;99.90
24518;DHT22;12678;51.336;12.406;2023-08-31T02:38:56;18.20;99.90
24518;DHT22;12678;51.336;12.406;2023-08-31T02:41:21;18.20;99.90
24518;DHT22;12678;51.336;12.406;2023-08-31T02:43:49;18.30;99.90
24518;DHT22;12678;51.336;12.406;2023-08-31T02:46:15;18.30;99.90
24518;DHT22;12678;51.336;12.406;2023-08-31T02:48:40;18.40;99.90
24518;DHT22;12678;51.336;12.406;2023-08-31T02:51:06;18.50;99.90
24518;DHT22;12678;51.336;12.406;2023-08-31T02:53:32;18.70;99.90
24518;DHT22;12678;51.336;12.406;2023-08-31T02:55:57;18.40;99.90
24518;DHT22;12678;51.336;12.406;2023-08-31T02:58:23;18.40;99.90
24518;DHT22;12678;51.336;12.406;2023-08-31T03:00:48;18.10;99.90
24518;DHT22;12678;51.336;12.406;2023-08-31T03:03:15;17.90;99.90
24518;DHT22;12678;51.336;12.406;2023-08-31T03:05:41;17.90;99.90
24518;DHT22;12678;51.336;12.406;2023-08-31T03:08:07;18.30;99.90
24518;DHT22;12678;51.336;12.406;2023-08-31T03:10:32;18.30;99.90
24518;DHT22;12678;51.336;12.406;2023-08-31T03:12:58;18.10;99.90
24518;DHT22;12678;51.336;12.406;2023-08-31T03:15:24;18.30;99.90
24518;DHT22;12678;51.336;12.406;2023-08-31T03:17:49;18.10;99.90
24518;DHT22;12678;51.336;12.406;2023-08-31T03:20:15;17.70;99.90
24518;DHT22;12678;51.336;12.406;2023-08-31T03:22:41;17.90;99.90
24518;DHT22;12678;51.336;12.406;2023-08-31T03:25:07;18.10;99.90
24518;DHT22;12678;51.336;12.406;2023-08-31T03:27:32;18.10;99.90
24518;DHT22;12678;51.336;12.406;2023-08-31T03:29:58;18.10;99.90
24518;DHT22;12678;51.336;12.406;2023-08-31T03:32:23;18.10;99.90
24518;DHT22;12678;51.336;12.406;2023-08-31T03:34:49;18.20;99.90
24518;DHT22;12678;51.336;12.406;2023-08-31T03:37:15;18.30;99.90
24518;DHT22;12678;51.336;12.406;2023-08-31T03:39:41;18.30;99.90
24518;DHT22;12678;51.336;12.406;2023-08-31T03:42:08;18.00;99.90
24518;DHT22;12678;51.336;12.406;2023-08-31T03:44:34;18.10;99.90
24518;DHT22;12678;51.336;12.406;2023-08-31T03:47:00;17.90;99.90
24518;DHT22;12678;51.336;12.406;2023-08-31T03:49:26;18.00;99.90
24518;DHT22;12678;51.336;12.406;2023-08-31T03:51:51;18.00;99.90
24518;DHT22;12678;51.336;12.406;2023-08-31T03:54:19;17.60;99.90
24518;DHT22;12678;51.336;12.406;2023-08-31T03:56:45;17.90;99.90
24518;DHT22;12678;51.336;12.406;2023-08-31T03:59:11;18.30;99.90
24518;DHT22;12678;51.336;12.406;2023-08-31T04:01:37;18.50;99.90
24518;DHT22;12678;51.336;12.406;2023-08-31T04:04:03;18.40;99.90
24518;DHT22;12678;51.336;12.406;2023-08-31T04:06:29;18.60;99.90
24518;DHT22;12678;51.336;12.406;2023-08-31T04:08:55;18.10;99.90
24518;DHT22;12678;51.336;12.406;2023-08-31T04:11:21;17.90;99.90
24518;DHT22;12678;51.336;12.406;2023-08-31T04:13:46;17.90;99.90
24518;DHT22;12678;51.336;12.406;2023-08-31T04:16:12;18.00;99.90
24518;DHT22;12678;51.336;12.406;2023-08-31T04:18:37;17.70;99.90
24518;DHT22;12678;51.336;12.406;2023-08-31T04:21:03;17.90;99.90
24518;DHT22;12678;51.336;12.406;2023-08-31T04:23:29;17.90;99.90
24518;DHT22;12678;51.336;12.406;2023-08-31T04:25:55;17.50;99.90
24518;DHT22;12678;51.336;12.406;2023-08-31T04:28:21;17.50;99.90
24518;DHT22;12678;51.336;12.406;2023-08-31T04:30:47;17.70;99.90
24518;DHT22;12678;51.336;12.406;2023-08-31T04:33:12;18.00;99.90
24518;DHT22;12678;51.336;12.406;2023-08-31T04:35:38;18.10;99.90
24518;DHT22;12678;51.336;12.406;2023-08-31T04:38:03;18.30;99.90
24518;DHT22;12678;51.336;12.406;2023-08-31T04:40:29;18.30;99.90
24518;DHT22;12678;51.336;12.406;2023-08-31T04:42:55;18.50;99.90
24518;DHT22;12678;51.336;12.406;2023-08-31T04:45:20;18.30;99.90
24518;DHT22;12678;51.336;12.406;2023-08-31T04:47:46;18.30;99.90
24518;DHT22;12678;51.336;12.406;2023-08-31T04:50:12;17.90;99.90
24518;DHT22;12678;51.336;12.406;2023-08-31T04:52:37;17.80;99.90
24518;DHT22;12678;51.336;12.406;2023-08-31T04:55:05;17.90;99.90
24518;DHT22;12678;51.336;12.406;2023-08-31T04:57:32;18.00;99.90
24518;DHT22;12678;51.336;12.406;2023-08-31T04:59:58;18.10;99.90
24518;DHT22;12678;51.336;12.406;2023-08-31T05:02:24;18.00;99.90
24518;DHT22;12678;51.336;12.406;2023-08-31T05:04:49;18.10;99.90
24518;DHT22;12678;51.336;12.406;2023-08-31T05:07:15;18.10;99.90
24518;DHT22;12678;51.336;12.406;2023-08-31T05:09:40;18.10;99.90
24518;DHT22;12678;51.336;12.406;2023-08-31T05:12:06;18.40;99.90
24518;DHT22;12678;51.336;12.406;2023-08-31T05:14:32;18.50;99.90
24518;DHT22;12678;51.336;12.406;2023-08-31T05:17:00;18.40;99.90
24518;DHT22;12678;51.336;12.406;2023-08-31T05:19:26;18.40;99.90
24518;DHT22;12678;51.336;12.406;2023-08-31T05:21:51;18.20;99.90
24518;DHT22;12678;51.336;12.406;2023-08-31T05:24:17;18.30;99.90
24518;DHT22;12678;51.336;12.406;2023-08-31T05:26:42;18.40;99.90
24518;DHT22;12678;51.336;12.406;2023-08-31T05:29:08;18.20;99.90
24518;DHT22;12678;51.336;12.406;2023-08-31T05:31:33;17.80;99.90
24518;DHT22;12678;51.336;12.406;2023-08-31T05:33:59;17.50;99.90
24518;DHT22;12678;51.336;12.406;2023-08-31T05:36:24;17.10;99.90
24518;DHT22;12678;51.336;12.406;2023-08-31T05:38:54;16.70;99.90
24518;DHT22;12678;51.336;12.406;2023-08-31T05:41:19;16.50;99.90
24518;DHT22;12678;51.336;12.406;2023-08-31T05:43:46;16.10;99.90
24518;DHT22;12678;51.336;12.406;2023-08-31T05:46:11;16.00;99.90
24518;DHT22;12678;51.336;12.406;2023-08-31T05:48:37;15.90;99.90
24518;DHT22;12678;51.336;12.406;2023-08-31T05:51:03;15.90;99.90
24518;DHT22;12678;51.336;12.406;2023-08-31T05:53:31;16.00;99.90
24518;DHT22;12678;51.336;12.406;2023-08-31T05:55:57;16.10;99.90
24518;DHT22;12678;51.336;12.406;2023-08-31T05:58:30;16.20;99.90
24518;DHT22;12678;51.336;12.406;2023-08-31T06:00:56;16.20;99.90
24518;DHT22;12678;51.336;12.406;2023-08-31T06:03:21;16.30;99.90
24518;DHT22;12678;51.336;12.406;2023-08-31T06:05:47;16.40;99.90
24518;DHT22;12678;51.336;12.406;2023-08-31T06:08:13;16.40;99.90
24518;DHT22;12678;51.336;12.406;2023-08-31T06:10:39;16.40;99.90
24518;DHT22;12678;51.336;12.406;2023-08-31T06:13:04;16.50;99.90
24518;DHT22;12678;51.336;12.406;2023-08-31T06:15:30;16.60;99.90
24518;DHT22;12678;51.336;12.406;2023-08-31T06:17:56;16.80;99.90
24518;DHT22;12678;51.336;12.406;2023-08-31T06:20:21;16.90;99.90
24518;DHT22;12678;51.336;12.406;2023-08-31T06:22:48;17.00;99.90
24518;DHT22;12678;51.336;12.406;2023-08-31T06:25:13;17.20;99.90
24518;DHT22;12678;51.336;12.406;2023-08-31T06:27:42;17.30;99.90
24518;DHT22;12678;51.336;12.406;2023-08-31T06:30:09;17.20;99.90
24518;DHT22;12678;51.336;12.406;2023-08-31T06:32:37;17.20;99.90
24518;DHT22;12678;51.336;12.406;2023-08-31T06:35:03;17.10;99.90
24518;DHT22;12678;51.336;12.406;2023-08-31T06:37:29;17.30;99.90
24518;DHT22;12678;51.336;12.406;2023-08-31T06:39:54;17.10;99.90
24518;DHT22;12678;51.336;12.406;2023-08-31T06:42:20;17.00;99.90
24518;DHT22;12678;51.336;12.406;2023-08-31T06:44:45;17.10;99.90
24518;DHT22;12678;51.336;12.406;2023-08-31T06:47:11;17.30;99.90
24518;DHT22;12678;51.336;12.406;2023-08-31T06:49:39;17.40;99.90
24518;DHT22;12678;51.336;12.406;2023-08-31T06:52:04;17.20;99.90
24518;DHT22;12678;51.336;12.406;2023-08-31T06:54:33;17.10;99.90
24518;DHT22;12678;51.336;12.406;2023-08-31T06:56:58;17.10;99.90
24518;DHT22;12678;51.336;12.406;2023-08-31T06:59:24;17.10;99.90
24518;DHT22;12678;51.336;12.406;2023-08-31T07:01:50;17.10;99.90
24518;DHT22;12678;51.336;12.406;2023-08-31T07:04:15;17.00;99.90
24518;DHT22;12678;51.336;12.406;2023-08-31T07:06:41;17.10;99.90
24518;DHT22;12678;51.336;12.406;2023-08-31T07:09:06;17.20;99.90
24518;DHT22;12678;51.336;12.406;2023-08-31T07:11:33;17.30;99.90
24518;DHT22;12678;51.336;12.406;2023-08-31T07:13:59;17.50;99.90
24518;DHT22;12678;51.336;12.406;2023-08-31T07:16:25;17.50;99.90
24518;DHT22;12678;51.336;12.406;2023-08-31T07:18:51;17.60;99.90
24518;DHT22;12678;51.336;12.406;2023-08-31T07:21:17;17.80;99.90
24518;DHT22;12678;51.336;12.406;2023-08-31T07:23:42;17.80;99.90
24518;DHT22;12678;51.336;12.406;2023-08-31T07:26:08;18.30;99.90
24518;DHT22;12678;51.336;12.406;2023-08-31T07:28:35;19.00;99.90
24518;DHT22;12678;51.336;12.406;2023-08-31T07:31:05;19.60;99.90
24518;DHT22;12678;51.336;12.406;2023-08-31T07:33:32;19.90;99.90
24518;DHT22;12678;51.336;12.406;2023-08-31T07:35:59;20.10;99.90
24518;DHT22;12678;51.336;12.406;2023-08-31T07:38:25;20.10;99.90
24518;DHT22;12678;51.336;12.406;2023-08-31T07:40:51;20.40;99.90
24518;DHT22;12678;51.336;12.406;2023-08-31T07:43:17;20.50;99.90
24518;DHT22;12678;51.336;12.406;2023-08-31T07:45:42;20.60;99.90
24518;DHT22;12678;51.336;12.406;2023-08-31T07:48:08;20.80;99.90
24518;DHT22;12678;51.336;12.406;2023-08-31T07:50:33;21.00;99.90
24518;DHT22;12678;51.336;12.406;2023-08-31T07:53:00;21.20;99.90
24518;DHT22;12678;51.336;12.406;2023-08-31T07:55:25;21.50;99.90
24518;DHT22;12678;51.336;12.406;2023-08-31T07:57:51;21.60;99.90
24518;DHT22;12678;51.336;12.406;2023-08-31T08:00:16;21.80;99.90
24518;DHT22;12678;51.336;12.406;2023-08-31T08:02:44;22.00;99.90
24518;DHT22;12678;51.336;12.406;2023-08-31T08:05:10;22.20;99.90
24518;DHT22;12678;51.336;12.406;2023-08-31T08:07:36;22.30;99.90
24518;DHT22;12678;51.336;12.406;2023-08-31T08:10:01;22.30;99.90
24518;DHT22;12678;51.336;12.406;2023-08-31T08:12:36;22.20;99.90
24518;DHT22;12678;51.336;12.406;2023-08-31T08:15:01;22.00;99.90
24518;DHT22;12678;51.336;12.406;2023-08-31T08:17:27;21.60;99.90
24518;DHT22;12678;51.336;12.406;2023-08-31T08:19:53;21.50;99.90
24518;DHT22;12678;51.336;12.406;2023-08-31T08:22:18;21.50;99.90
24518;DHT22;12678;51.336;12.406;2023-08-31T08:24:44;21.20;99.90
24518;DHT22;12678;51.336;12.406;2023-08-31T08:27:09;21.10;99.90
24518;DHT22;12678;51.336;12.406;2023-08-31T08:29:35;21.00;99.90
24518;DHT22;12678;51.336;12.406;2023-08-31T08:32:02;21.00;99.90
24518;DHT22;12678;51.336;12.406;2023-08-31T08:34:28;21.00;99.90
24518;DHT22;12678;51.336;12.406;2023-08-31T08:36:54;20.90;99.90
24518;DHT22;12678;51.336;12.406;2023-08-31T08:39:20;20.80;99.90
24518;DHT22;12678;51.336;12.406;2023-08-31T08:41:46;20.60;99.90
24518;DHT22;12678;51.336;12.406;2023-08-31T08:44:13;20.60;99.90
24518;DHT22;12678;51.336;12.406;2023-08-31T08:46:40;20.60;99.90
24518;DHT22;12678;51.336;12.406;2023-08-31T08:49:06;20.50;99.90
24518;DHT22;12678;51.336;12.406;2023-08-31T08:51:35;20.30;99.90
24518;DHT22;12678;51.336;12.406;2023-08-31T08:54:01;20.30;99.90
24518;DHT22;12678;51.336;12.406;2023-08-31T08:56:27;20.40;99.90
24518;DHT22;12678;51.336;12.406;2023-08-31T08:58:52;20.60;99.90
24518;DHT22;12678;51.336;12.406;2023-08-31T09:01:18;20.50;99.90
24518;DHT22;12678;51.336;12.406;2023-08-31T09:03:48;20.60;99.90
24518;DHT22;12678;51.336;12.406;2023-08-31T09:06:14;20.70;99.90
24518;DHT22;12678;51.336;12.406;2023-08-31T09:08:41;20.60;99.90
24518;DHT22;12678;51.336;12.406;2023-08-31T09:11:07;20.70;99.90
24518;DHT22;12678;51.336;12.406;2023-08-31T09:13:32;20.60;99.90
24518;DHT22;12678;51.336;12.406;2023-08-31T09:15:59;20.50;99.90
24518;DHT22;12678;51.336;12.406;2023-08-31T09:20:51;20.30;99.90
24518;DHT22;12678;51.336;12.406;2023-08-31T09:23:17;20.20;99.90
24518;DHT22;12678;51.336;12.406;2023-08-31T09:25:47;20.20;99.90
24518;DHT22;12678;51.336;12.406;2023-08-31T09:28:19;20.10;99.90
24518;DHT22;12678;51.336;12.406;2023-08-31T09:30:47;20.00;99.90
24518;DHT22;12678;51.336;12.406;2023-08-31T09:33:17;19.90;99.90
24518;DHT22;12678;51.336;12.406;2023-08-31T09:35:52;19.80;99.90
24518;DHT22;12678;51.336;12.406;2023-08-31T09:38:18;19.70;99.90
24518;DHT22;12678;51.336;12.406;2023-08-31T09:40:44;20.00;99.90
24518;DHT22;12678;51.336;12.406;2023-08-31T09:43:10;20.20;99.90
24518;DHT22;12678;51.336;12.406;2023-08-31T09:45:36;20.60;99.90
24518;DHT22;12678;51.336;12.406;2023-08-31T09:48:03;21.00;99.90
24518;DHT22;12678;51.336;12.406;2023-08-31T09:50:31;21.00;99.90
24518;DHT22;12678;51.336;12.406;2023-08-31T09:53:04;21.10;99.90
24518;DHT22;12678;51.336;12.406;2023-08-31T09:55:31;21.30;99.90
24518;DHT22;12678;51.336;12.406;2023-08-31T09:57:59;21.40;99.90
24518;DHT22;12678;51.336;12.406;2023-08-31T10:00:29;21.50;99.90
24518;DHT22;12678;51.336;12.406;2023-08-31T10:03:00;21.50;99.90
24518;DHT22;12678;51.336;12.406;2023-08-31T10:05:25;21.50;99.90
24518;DHT22;12678;51.336;12.406;2023-08-31T10:07:51;21.50;99.90
24518;DHT22;12678;51.336;12.406;2023-08-31T10:10:17;21.30;99.90
24518;DHT22;12678;51.336;12.406;2023-08-31T10:12:48;21.30;99.90
24518;DHT22;12678;51.336;12.406;2023-08-31T10:15:15;21.60;99.90
24518;DHT22;12678;51.336;12.406;2023-08-31T10:17:41;21.50;99.90
24518;DHT22;12678;51.336;12.406;2023-08-31T10:20:08;21.40;99.90
24518;DHT22;12678;51.336;12.406;2023-08-31T10:22:35;21.40;99.90
24518;DHT22;12678;51.336;12.406;2023-08-31T10:25:03;21.60;99.90
24518;DHT22;12678;51.336;12.406;2023-08-31T10:27:39;21.80;99.90
24518;DHT22;12678;51.336;12.406;2023-08-31T10:38:14;21.60;99.90
24518;DHT22;12678;51.336;12.406;2023-08-31T10:40:40;21.70;99.90
24518;DHT22;12678;51.336;12.406;2023-08-31T10:43:15;21.70;99.90
24518;DHT22;12678;51.336;12.406;2023-08-31T10:45:45;21.60;99.90
24518;DHT22;12678;51.336;12.406;2023-08-31T10:48:11;21.70;99.90
24518;DHT22;12678;51.336;12.406;2023-08-31T10:50:43;21.80;99.90
24518;DHT22;12678;51.336;12.406;2023-08-31T10:53:10;21.60;99.90
24518;DHT22;12678;51.336;12.406;2023-08-31T10:55:52;21.60;99.90
24518;DHT22;12678;51.336;12.406;2023-08-31T10:58:18;21.40;99.90
24518;DHT22;12678;51.336;12.406;2023-08-31T11:00:52;21.40;99.90
24518;DHT22;12678;51.336;12.406;2023-08-31T11:03:18;21.60;99.90
24518;DHT22;12678;51.336;12.406;2023-08-31T11:05:53;21.60;99.90
24518;DHT22;12678;51.336;12.406;2023-08-31T11:08:25;21.70;99.90
24518;DHT22;12678;51.336;12.406;2023-08-31T11:10:52;21.20;99.90
24518;DHT22;12678;51.336;12.406;2023-08-31T11:13:23;21.00;99.90
24518;DHT22;12678;51.336;12.406;2023-08-31T11:15:49;20.90;99.90
24518;DHT22;12678;51.336;12.406;2023-08-31T11:18:15;21.10;99.90
24518;DHT22;12678;51.336;12.406;2023-08-31T11:20:43;21.30;99.90
24518;DHT22;12678;51.336;12.406;2023-08-31T11:23:09;21.20;99.90
24518;DHT22;12678;51.336;12.406;2023-08-31T11:25:35;21.10;99.90
24518;DHT22;12678;51.336;12.406;2023-08-31T11:28:06;21.10;99.90
24518;DHT22;12678;51.336;12.406;2023-08-31T11:30:36;21.30;99.90
24518;DHT22;12678;51.336;12.406;2023-08-31T11:33:09;21.50;99.90
24518;DHT22;12678;51.336;12.406;2023-08-31T11:35:38;21.50;99.90
24518;DHT22;12678;51.336;12.406;2023-08-31T11:38:06;21.40;99.90
24518;DHT22;12678;51.336;12.406;2023-08-31T11:40:32;21.20;99.90
24518;DHT22;12678;51.336;12.406;2023-08-31T11:42:59;21.30;99.90
24518;DHT22;12678;51.336;12.406;2023-08-31T11:45:29;21.50;99.90
24518;DHT22;12678;51.336;12.406;2023-08-31T11:47:55;21.60;99.90
24518;DHT22;12678;51.336;12.406;2023-08-31T11:50:22;21.70;99.90
24518;DHT22;12678;51.336;12.406;2023-08-31T11:52:48;21.70;99.90
24518;DHT22;12678;51.336;12.406;2023-08-31T11:55:15;21.60;99.90
24518;DHT22;12678;51.336;12.406;2023-08-31T11:57:49;21.20;99.90
24518;DHT22;12678;51.336;12.406;2023-08-31T12:00:17;21.10;99.90
24518;DHT22;12678;51.336;12.406;2023-08-31T12:02:42;21.10;99.90
24518;DHT22;12678;51.336;12.406;2023-08-31T12:05:09;21.00;99.90
24518;DHT22;12678;51.336;12.406;2023-08-31T12:07:39;21.20;99.90
24518;DHT22;12678;51.336;12.406;2023-08-31T12:10:09;21.20;99.90
24518;DHT22;12678;51.336;12.406;2023-08-31T12:12:35;21.20;99.90
24518;DHT22;12678;51.336;12.406;2023-08-31T12:15:02;21.10;99.90
24518;DHT22;12678;51.336;12.406;2023-08-31T12:17:30;20.90;99.90
24518;DHT22;12678;51.336;12.406;2023-08-31T12:20:03;21.10;99.90
24518;DHT22;12678;51.336;12.406;2023-08-31T12:22:33;21.20;99.90
24518;DHT22;12678;51.336;12.406;2023-08-31T12:24:58;21.10;99.90
24518;DHT22;12678;51.336;12.406;2023-08-31T12:27:24;21.30;99.90
24518;DHT22;12678;51.336;12.406;2023-08-31T12:29:50;21.50;99.90
24518;DHT22;12678;51.336;12.406;2023-08-31T12:32:16;21.60;99.90
24518;DHT22;12678;51.336;12.406;2023-08-31T12:34:43;21.50;99.90
24518;DHT22;12678;51.336;12.406;2023-08-31T12:37:09;21.60;99.90
24518;DHT22;12678;51.336;12.406;2023-08-31T12:39:34;21.70;99.90
24518;DHT22;12678;51.336;12.406;2023-08-31T12:42:00;21.40;99.90
24518;DHT22;12678;51.336;12.406;2023-08-31T12:44:25;21.40;99.90
24518;DHT22;12678;51.336;12.406;2023-08-31T12:46:52;21.40;99.90
24518;DHT22;12678;51.336;12.406;2023-08-31T12:49:18;21.50;99.00
24518;DHT22;12678;51.336;12.406;2023-08-31T12:51:45;21.30;99.90
24518;DHT22;12678;51.336;12.406;2023-08-31T12:54:11;21.40;99.90
24518;DHT22;12678;51.336;12.406;2023-08-31T12:56:37;21.30;99.90
24518;DHT22;12678;51.336;12.406;2023-08-31T12:59:03;21.10;99.90
24518;DHT22;12678;51.336;12.406;2023-08-31T13:01:31;21.10;99.90
24518;DHT22;12678;51.336;12.406;2023-08-31T13:03:58;21.20;99.90
24518;DHT22;12678;51.336;12.406;2023-08-31T13:06:24;21.30;98.50
24518;DHT22;12678;51.336;12.406;2023-08-31T13:08:50;21.30;99.60
24518;DHT22;12678;51.336;12.406;2023-08-31T13:11:16;21.50;99.90
24518;DHT22;12678;51.336;12.406;2023-08-31T13:13:43;21.70;99.90
24518;DHT22;12678;51.336;12.406;2023-08-31T13:16:09;21.60;99.50
24518;DHT22;12678;51.336;12.406;2023-08-31T13:18:34;21.80;99.90
24518;DHT22;12678;51.336;12.406;2023-08-31T13:21:00;22.00;99.90
24518;DHT22;12678;51.336;12.406;2023-08-31T13:23:26;21.90;99.90
24518;DHT22;12678;51.336;12.406;2023-08-31T13:25:51;22.00;99.90
24518;DHT22;12678;51.336;12.406;2023-08-31T13:28:17;21.90;99.90
24518;DHT22;12678;51.336;12.406;2023-08-31T13:30:43;21.90;99.90
24518;DHT22;12678;51.336;12.406;2023-08-31T13:33:08;21.80;97.00
24518;DHT22;12678;51.336;12.406;2023-08-31T13:35:35;21.70;99.90
24518;DHT22;12678;51.336;12.406;2023-08-31T13:38:01;21.80;98.50
24518;DHT22;12678;51.336;12.406;2023-08-31T13:40:28;21.50;97.80
24518;DHT22;12678;51.336;12.406;2023-08-31T13:42:58;21.30;96.10
24518;DHT22;12678;51.336;12.406;2023-08-31T13:45:28;21.30;99.90
24518;DHT22;12678;51.336;12.406;2023-08-31T13:47:54;21.40;99.90
24518;DHT22;12678;51.336;12.406;2023-08-31T13:50:20;21.50;99.90
24518;DHT22;12678;51.336;12.406;2023-08-31T13:52:46;21.50;99.90
24518;DHT22;12678;51.336;12.406;2023-08-31T13:55:11;21.50;98.90
24518;DHT22;12678;51.336;12.406;2023-08-31T13:57:41;21.50;99.90
24518;DHT22;12678;51.336;12.406;2023-08-31T14:00:07;21.10;98.50
24518;DHT22;12678;51.336;12.406;2023-08-31T14:02:38;21.20;99.90
24518;DHT22;12678;51.336;12.406;2023-08-31T14:05:05;21.20;99.20
24518;DHT22;12678;51.336;12.406;2023-08-31T14:07:35;21.40;99.90
24518;DHT22;12678;51.336;12.406;2023-08-31T14:10:00;21.40;98.10
24518;DHT22;12678;51.336;12.406;2023-08-31T14:12:26;21.30;97.10
24518;DHT22;12678;51.336;12.406;2023-08-31T14:14:52;21.40;99.90
24518;DHT22;12678;51.336;12.406;2023-08-31T14:17:18;21.40;99.10
24518;DHT22;12678;51.336;12.406;2023-08-31T14:19:44;21.50;99.90
24518;DHT22;12678;51.336;12.406;2023-08-31T14:22:09;21.50;99.90
24518;DHT22;12678;51.336;12.406;2023-08-31T14:24:36;21.50;99.90
24518;DHT22;12678;51.336;12.406;2023-08-31T14:27:02;21.40;99.90
24518;DHT22;12678;51.336;12.406;2023-08-31T14:29:28;21.50;99.90
24518;DHT22;12678;51.336;12.406;2023-08-31T14:31:54;21.60;99.90
24518;DHT22;12678;51.336;12.406;2023-08-31T14:34:21;21.70;99.90
24518;DHT22;12678;51.336;12.406;2023-08-31T14:36:46;21.80;99.90
24518;DHT22;12678;51.336;12.406;2023-08-31T14:39:12;21.80;99.20
24518;DHT22;12678;51.336;12.406;2023-08-31T14:41:37;21.80;99.90
24518;DHT22;12678;51.336;12.406;2023-08-31T14:44:03;21.70;99.90
24518;DHT22;12678;51.336;12.406;2023-08-31T14:46:29;21.70;99.00
24518;DHT22;12678;51.336;12.406;2023-08-31T14:48:54;21.40;99.90
24518;DHT22;12678;51.336;12.406;2023-08-31T14:51:20;21.00;99.90
24518;DHT22;12678;51.336;12.406;2023-08-31T14:53:45;20.80;99.90
24518;DHT22;12678;51.336;12.406;2023-08-31T14:56:11;20.60;99.90
24518;DHT22;12678;51.336;12.406;2023-08-31T14:58:37;20.50;99.90
24518;DHT22;12678;51.336;12.406;2023-08-31T15:01:02;20.70;99.90
24518;DHT22;12678;51.336;12.406;2023-08-31T15:03:28;20.80;99.90
24518;DHT22;12678;51.336;12.406;2023-08-31T15:05:55;20.80;99.90
24518;DHT22;12678;51.336;12.406;2023-08-31T15:08:22;20.90;99.90
24518;DHT22;12678;51.336;12.406;2023-08-31T15:11:00;21.00;99.90
24518;DHT22;12678;51.336;12.406;2023-08-31T15:13:25;21.20;99.90
24518;DHT22;12678;51.336;12.406;2023-08-31T15:15:52;21.00;99.90
24518;DHT22;12678;51.336;12.406;2023-08-31T15:18:17;20.90;99.90
24518;DHT22;12678;51.336;12.406;2023-08-31T15:20:43;20.90;99.90
24518;DHT22;12678;51.336;12.406;2023-08-31T15:23:08;21.00;99.90
24518;DHT22;12678;51.336;12.406;2023-08-31T15:25:34;21.00;99.90
24518;DHT22;12678;51.336;12.406;2023-08-31T15:27:59;21.10;99.90